sensor_id;sensor_type;location;lat;lon;timestamp;pressure;altitude;pressure_sealevel;temperature;humidity
10510;BME280;5303;53.266;10.410;2023-11-21T00:00:50;100753.28;;;8.46;100.00
10510;BME280;5303;53.266;10.410;2023-11-21T00:03:16;100752.41;;;8.46;100.00
10510;BME280;5303;53.266;10.410;2023-11-21T00:05:41;100753.28;;;8.46;100.00
10510;BME280;5303;53.266;10.410;2023-11-21T00:08:07;100751.56;;;8.48;100.00
10510;BME280;5303;53.266;10.410;2023-11-21T00:10:33;100751.66;;;8.70;100.00
10510;BME280;5303;53.266;10.410;2023-11-21T00:12:58;100760.38;;;8.65;100.00
10510;BME280;5303;53.266;10.410;2023-11-21T00:15:24;100756.00;;;8.58;100.00
10510;BME280;5303;53.266;10.410;2023-11-21T00:17:51;100763.88;;;8.58;100.00
10510;BME280;5303;53.266;10.410;2023-11-21T00:20:16;100762.97;;;8.52;100.00
10510;BME280;5303;53.266;10.410;2023-11-21T00:22:42;100770.81;;;8.38;100.00
10510;BME280;5303;53.266;10.410;2023-11-21T00:25:08;100761.91;;;8.24;100.00
10510;BME280;5303;53.266;10.410;2023-11-21T00:27:38;100777.59;;;8.12;100.00
10510;BME280;5303;53.266;10.410;2023-11-21T00:30:04;100782.78;;;7.99;100.00
10510;BME280;5303;53.266;10.410;2023-11-21T00:32:30;100781.00;;;7.95;100.00
10510;BME280;5303;53.266;10.410;2023-11-21T00:34:56;100793.22;;;7.87;100.00
10510;BME280;5303;53.266;10.410;2023-11-21T00:37:21;100787.03;;;7.85;100.00
10510;BME280;5303;53.266;10.410;2023-11-21T00:39:46;100795.78;;;7.78;100.00
10510;BME280;5303;53.266;10.410;2023-11-21T00:42:12;100791.34;;;7.74;100.00
10510;BME280;5303;53.266;10.410;2023-11-21T00:44:38;100801.03;;;7.81;100.00
10510;BME280;5303;53.266;10.410;2023-11-21T00:47:03;100808.06;;;7.85;100.00
10510;BME280;5303;53.266;10.410;2023-11-21T00:49:29;100794.00;;;7.77;100.00
10510;BME280;5303;53.266;10.410;2023-11-21T00:51:54;100807.22;;;7.88;100.00
10510;BME280;5303;53.266;10.410;2023-11-21T00:54:20;100810.59;;;7.71;100.00
10510;BME280;5303;53.266;10.410;2023-11-21T00:56:45;100818.38;;;7.65;100.00
10510;BME280;5303;53.266;10.410;2023-11-21T00:59:12;100815.75;;;7.61;100.00
10510;BME280;5303;53.266;10.410;2023-11-21T01:01:37;100814.00;;;7.63;100.00
10510;BME280;5303;53.266;10.410;2023-11-21T01:04:03;100821.94;;;7.67;100.00
10510;BME280;5303;53.266;10.410;2023-11-21T01:06:28;100819.28;;;7.66;100.00
10510;BME280;5303;53.266;10.410;2023-11-21T01:08:55;100821.84;;;7.60;100.00
10510;BME280;5303;53.266;10.410;2023-11-21T01:11:20;100824.47;;;7.60;100.00
10510;BME280;5303;53.266;10.410;2023-11-21T01:13:45;100821.81;;;7.55;100.00
10510;BME280;5303;53.266;10.410;2023-11-21T01:16:11;100833.03;;;7.40;100.00
10510;BME280;5303;53.266;10.410;2023-11-21T01:18:36;100833.94;;;7.45;100.00
10510;BME280;5303;53.266;10.410;2023-11-21T01:21:02;100838.28;;;7.40;100.00
10510;BME280;5303;53.266;10.410;2023-11-21T01:23:27;100847.00;;;7.36;100.00
10510;BME280;5303;53.266;10.410;2023-11-21T01:25:55;100848.78;;;7.37;100.00
10510;BME280;5303;53.266;10.410;2023-11-21T01:28:21;100859.31;;;7.43;100.00
10510;BME280;5303;53.266;10.410;2023-11-21T01:30:46;100856.63;;;7.36;100.00
10510;BME280;5303;53.266;10.410;2023-11-21T01:33:11;100859.16;;;7.28;100.00
10510;BME280;5303;53.266;10.410;2023-11-21T01:35:37;100866.16;;;7.29;100.00
10510;BME280;5303;53.266;10.410;2023-11-21T01:38:02;100872.28;;;7.30;100.00
10510;BME280;5303;53.266;10.410;2023-11-21T01:40:29;100873.19;;;7.32;100.00
10510;BME280;5303;53.266;10.410;2023-11-21T01:42:55;100875.66;;;7.16;100.00
10510;BME280;5303;53.266;10.410;2023-11-21T01:45:21;100875.44;;;7.00;100.00
10510;BME280;5303;53.266;10.410;2023-11-21T01:47:46;100875.41;;;6.95;100.00
10510;BME280;5303;53.266;10.410;2023-11-21T01:50:16;100891.16;;;6.97;100.00
10510;BME280;5303;53.266;10.410;2023-11-21T01:52:44;100885.03;;;6.99;100.00
10510;BME280;5303;53.266;10.410;2023-11-21T01:55:10;100889.31;;;6.92;100.00
10510;BME280;5303;53.266;10.410;2023-11-21T01:57:36;100897.03;;;6.80;100.00
10510;BME280;5303;53.266;10.410;2023-11-21T02:00:03;100901.41;;;6.80;100.00
10510;BME280;5303;53.266;10.410;2023-11-21T02:02:43;100909.13;;;6.69;100.00
10510;BME280;5303;53.266;10.410;2023-11-21T02:05:11;100910.75;;;6.62;100.00
10510;BME280;5303;53.266;10.410;2023-11-21T02:07:38;100909.84;;;6.60;100.00
10510;BME280;5303;53.266;10.410;2023-11-21T02:10:04;100911.56;;;6.57;100.00
10510;BME280;5303;53.266;10.410;2023-11-21T02:12:30;100911.59;;;6.60;100.00
10510;BME280;5303;53.266;10.410;2023-11-21T02:14:55;100922.91;;;6.54;100.00
10510;BME280;5303;53.266;10.410;2023-11-21T02:17:21;100923.78;;;6.55;100.00
10510;BME280;5303;53.266;10.410;2023-11-21T02:19:46;100923.78;;;6.56;100.00
10510;BME280;5303;53.266;10.410;2023-11-21T02:22:13;100929.78;;;6.48;100.00
10510;BME280;5303;53.266;10.410;2023-11-21T02:24:41;100924.50;;;6.45;100.00
10510;BME280;5303;53.266;10.410;2023-11-21T02:27:07;100939.25;;;6.40;100.00
10510;BME280;5303;53.266;10.410;2023-11-21T02:29:32;100943.63;;;6.41;100.00
10510;BME280;5303;53.266;10.410;2023-11-21T02:31:58;100944.44;;;6.37;100.00
10510;BME280;5303;53.266;10.410;2023-11-21T02:34:24;100945.22;;;6.31;100.00
10510;BME280;5303;53.266;10.410;2023-11-21T02:36:50;100952.34;;;6.40;100.00
10510;BME280;5303;53.266;10.410;2023-11-21T02:39:16;100940.06;;;6.35;100.00
10510;BME280;5303;53.266;10.410;2023-11-21T02:41:42;100947.94;;;6.35;100.00
10510;BME280;5303;53.266;10.410;2023-11-21T02:44:08;100957.50;;;6.33;100.00
10510;BME280;5303;53.266;10.410;2023-11-21T02:46:35;100954.09;;;6.41;100.00
10510;BME280;5303;53.266;10.410;2023-11-21T02:49:04;100948.78;;;6.34;100.00
10510;BME280;5303;53.266;10.410;2023-11-21T02:51:31;100952.34;;;6.40;100.00
10510;BME280;5303;53.266;10.410;2023-11-21T02:53:57;100946.22;;;6.39;100.00
10510;BME280;5303;53.266;10.410;2023-11-21T02:56:25;100954.81;;;6.30;100.00
10510;BME280;5303;53.266;10.410;2023-11-21T02:58:51;100968.00;;;6.35;100.00
10510;BME280;5303;53.266;10.410;2023-11-21T03:01:16;100963.66;;;6.37;100.00
10510;BME280;5303;53.266;10.410;2023-11-21T03:03:42;100974.22;;;6.42;100.00
10510;BME280;5303;53.266;10.410;2023-11-21T03:06:07;100968.03;;;6.37;100.00
10510;BME280;5303;53.266;10.410;2023-11-21T03:08:33;100980.31;;;6.41;100.00
10510;BME280;5303;53.266;10.410;2023-11-21T03:10:58;100982.94;;;6.41;100.00
10510;BME280;5303;53.266;10.410;2023-11-21T03:13:24;100987.97;;;6.28;100.00
10510;BME280;5303;53.266;10.410;2023-11-21T03:15:49;100993.31;;;6.34;100.00
10510;BME280;5303;53.266;10.410;2023-11-21T03:18:14;100998.25;;;6.18;100.00
10510;BME280;5303;53.266;10.410;2023-11-21T03:20:40;100995.81;;;6.28;100.00
10510;BME280;5303;53.266;10.410;2023-11-21T03:23:05;100998.25;;;6.16;100.00
10510;BME280;5303;53.266;10.410;2023-11-21T03:25:30;100998.25;;;6.18;100.00
10510;BME280;5303;53.266;10.410;2023-11-21T03:27:56;101003.38;;;6.12;100.00
10510;BME280;5303;53.266;10.410;2023-11-21T03:30:21;101007.84;;;6.17;100.00
10510;BME280;5303;53.266;10.410;2023-11-21T03:32:47;101003.47;;;6.16;100.00
10510;BME280;5303;53.266;10.410;2023-11-21T03:35:12;101007.69;;;6.08;100.00
10510;BME280;5303;53.266;10.410;2023-11-21T03:37:38;101006.63;;;5.98;100.00
10510;BME280;5303;53.266;10.410;2023-11-21T03:40:06;101013.69;;;6.02;100.00
10510;BME280;5303;53.266;10.410;2023-11-21T03:42:33;101011.97;;;6.03;100.00
10510;BME280;5303;53.266;10.410;2023-11-21T03:44:58;101014.59;;;6.03;100.00
10510;BME280;5303;53.266;10.410;2023-11-21T03:47:23;101025.81;;;5.97;100.00
10510;BME280;5303;53.266;10.410;2023-11-21T03:49:49;101031.97;;;5.99;100.00
10510;BME280;5303;53.266;10.410;2023-11-21T03:52:14;101032.69;;;5.92;100.00
10510;BME280;5303;53.266;10.410;2023-11-21T03:54:40;101034.31;;;5.87;100.00
10510;BME280;5303;53.266;10.410;2023-11-21T03:57:05;101041.25;;;5.84;100.00
10510;BME280;5303;53.266;10.410;2023-11-21T03:59:30;101040.63;;;5.95;100.00
10510;BME280;5303;53.266;10.410;2023-11-21T04:01:56;101049.38;;;5.96;100.00
10510;BME280;5303;53.266;10.410;2023-11-21T04:04:24;101050.91;;;5.88;100.00
10510;BME280;5303;53.266;10.410;2023-11-21T04:06:49;101051.72;;;5.84;100.00
10510;BME280;5303;53.266;10.410;2023-11-21T04:09:16;101055.25;;;5.86;100.00
10510;BME280;5303;53.266;10.410;2023-11-21T04:11:42;101055.25;;;5.86;100.00
10510;BME280;5303;53.266;10.410;2023-11-21T04:14:08;101062.09;;;5.81;100.00
10510;BME280;5303;53.266;10.410;2023-11-21T04:16:33;101069.91;;;5.77;100.00
10510;BME280;5303;53.266;10.410;2023-11-21T04:18:59;101073.38;;;5.76;100.00
10510;BME280;5303;53.266;10.410;2023-11-21T04:21:24;101076.16;;;5.84;100.00
10510;BME280;5303;53.266;10.410;2023-11-21T04:23:49;101086.13;;;6.02;100.00
10510;BME280;5303;53.266;10.410;2023-11-21T04:26:14;101092.13;;;5.96;100.00
10510;BME280;5303;53.266;10.410;2023-11-21T04:28:40;101093.16;;;6.03;100.00
10510;BME280;5303;53.266;10.410;2023-11-21T04:31:05;101103.50;;;5.97;100.00
10510;BME280;5303;53.266;10.410;2023-11-21T04:33:32;101111.53;;;6.04;100.00
10510;BME280;5303;53.266;10.410;2023-11-21T04:35:57;101109.41;;;5.90;100.00
10510;BME280;5303;53.266;10.410;2023-11-21T04:38:22;101115.47;;;5.86;100.00
10510;BME280;5303;53.266;10.410;2023-11-21T04:40:48;101114.47;;;5.81;100.00
10510;BME280;5303;53.266;10.410;2023-11-21T04:43:13;101116.28;;;5.83;100.00
10510;BME280;5303;53.266;10.410;2023-11-21T04:45:38;101112.69;;;5.79;100.00
10510;BME280;5303;53.266;10.410;2023-11-21T04:48:04;101120.16;;;6.00;100.00
10510;BME280;5303;53.266;10.410;2023-11-21T04:50:29;101119.94;;;5.91;100.00
10510;BME280;5303;53.266;10.410;2023-11-21T04:52:54;101125.03;;;5.85;100.00
10510;BME280;5303;53.266;10.410;2023-11-21T04:55:19;101124.44;;;5.97;100.00
10510;BME280;5303;53.266;10.410;2023-11-21T04:57:45;101135.53;;;5.85;100.00
10510;BME280;5303;53.266;10.410;2023-11-21T05:00:11;101141.66;;;5.87;100.00
10510;BME280;5303;53.266;10.410;2023-11-21T05:02:37;101147.72;;;5.85;100.00
10510;BME280;5303;53.266;10.410;2023-11-21T05:05:03;101140.97;;;5.94;100.00
10510;BME280;5303;53.266;10.410;2023-11-21T05:07:31;101143.34;;;5.84;100.00
10510;BME280;5303;53.266;10.410;2023-11-21T05:09:57;101144.38;;;5.90;100.00
10510;BME280;5303;53.266;10.410;2023-11-21T05:12:22;101162.38;;;5.76;100.00
10510;BME280;5303;53.266;10.410;2023-11-21T05:14:48;101159.06;;;5.84;100.00
10510;BME280;5303;53.266;10.410;2023-11-21T05:17:14;101160.63;;;5.77;100.00
10510;BME280;5303;53.266;10.410;2023-11-21T05:19:39;101175.78;;;5.90;100.00
10510;BME280;5303;53.266;10.410;2023-11-21T05:22:06;101168.50;;;5.77;100.00
10510;BME280;5303;53.266;10.410;2023-11-21T05:24:31;101169.22;;;5.71;100.00
10510;BME280;5303;53.266;10.410;2023-11-21T05:26:57;101170.97;;;5.71;100.00
10510;BME280;5303;53.266;10.410;2023-11-21T05:29:23;101176.06;;;5.65;100.00
10510;BME280;5303;53.266;10.410;2023-11-21T05:31:48;101172.78;;;5.73;100.00
10510;BME280;5303;53.266;10.410;2023-11-21T05:34:13;101174.34;;;5.65;100.00
10510;BME280;5303;53.266;10.410;2023-11-21T05:36:38;101175.44;;;5.75;100.00
10510;BME280;5303;53.266;10.410;2023-11-21T05:39:04;101169.38;;;5.77;100.00
10510;BME280;5303;53.266;10.410;2023-11-21T05:41:29;101175.50;;;5.78;100.00
10510;BME280;5303;53.266;10.410;2023-11-21T05:43:55;101186.53;;;5.63;100.00
10510;BME280;5303;53.266;10.410;2023-11-21T05:46:20;101184.88;;;5.68;100.00
10510;BME280;5303;53.266;10.410;2023-11-21T05:48:45;101192.53;;;5.61;100.00
10510;BME280;5303;53.266;10.410;2023-11-21T05:51:11;101188.97;;;5.57;100.00
10510;BME280;5303;53.266;10.410;2023-11-21T05:53:37;101199.59;;;5.63;100.00
10510;BME280;5303;53.266;10.410;2023-11-21T05:56:03;101202.94;;;5.58;100.00
10510;BME280;5303;53.266;10.410;2023-11-21T05:58:29;101216.00;;;5.56;100.00
10510;BME280;5303;53.266;10.410;2023-11-21T06:00:54;101223.78;;;5.53;100.00
10510;BME280;5303;53.266;10.410;2023-11-21T06:03:19;101222.84;;;5.51;100.00
10510;BME280;5303;53.266;10.410;2023-11-21T06:05:44;101221.97;;;5.50;100.00
10510;BME280;5303;53.266;10.410;2023-11-21T06:08:10;101226.53;;;5.59;100.00
10510;BME280;5303;53.266;10.410;2023-11-21T06:10:35;101222.06;;;5.54;100.00
10510;BME280;5303;53.266;10.410;2023-11-21T06:13:01;101231.53;;;5.50;100.00
10510;BME280;5303;53.266;10.410;2023-11-21T06:15:26;101242.00;;;5.50;100.00
10510;BME280;5303;53.266;10.410;2023-11-21T06:17:51;101249.16;;;5.57;100.00
10510;BME280;5303;53.266;10.410;2023-11-21T06:20:18;101244.66;;;5.52;100.00
10510;BME280;5303;53.266;10.410;2023-11-21T06:22:46;101248.09;;;5.49;100.00
10510;BME280;5303;53.266;10.410;2023-11-21T06:25:12;101255.19;;;5.53;100.00
10510;BME280;5303;53.266;10.410;2023-11-21T06:27:45;101257.00;;;5.56;100.00
10510;BME280;5303;53.266;10.410;2023-11-21T06:30:12;101268.56;;;5.65;100.00
10510;BME280;5303;53.266;10.410;2023-11-21T06:32:39;101272.13;;;5.69;100.00
10510;BME280;5303;53.266;10.410;2023-11-21T06:35:05;101287.75;;;5.64;100.00
10510;BME280;5303;53.266;10.410;2023-11-21T06:37:31;101285.28;;;5.72;100.00
10510;BME280;5303;53.266;10.410;2023-11-21T06:39:57;101294.81;;;5.68;100.00
10510;BME280;5303;53.266;10.410;2023-11-21T06:42:24;101296.50;;;5.66;100.00
10510;BME280;5303;53.266;10.410;2023-11-21T06:44:49;101297.28;;;5.62;100.00
10510;BME280;5303;53.266;10.410;2023-11-21T06:47:17;101302.63;;;5.67;100.00
10510;BME280;5303;53.266;10.410;2023-11-21T06:49:42;101301.69;;;5.63;100.00
10510;BME280;5303;53.266;10.410;2023-11-21T06:52:08;101309.03;;;5.79;100.00
10510;BME280;5303;53.266;10.410;2023-11-21T06:54:34;101315.81;;;5.71;100.00
10510;BME280;5303;53.266;10.410;2023-11-21T06:57:00;101304.34;;;5.66;100.00
10510;BME280;5303;53.266;10.410;2023-11-21T06:59:25;101316.53;;;5.64;100.00
10510;BME280;5303;53.266;10.410;2023-11-21T07:01:50;101315.75;;;5.68;100.00
10510;BME280;5303;53.266;10.410;2023-11-21T07:04:16;101315.91;;;5.74;100.00
10510;BME280;5303;53.266;10.410;2023-11-21T07:06:42;101326.22;;;5.68;100.00
10510;BME280;5303;53.266;10.410;2023-11-21T07:09:08;101329.75;;;5.70;100.00
10510;BME280;5303;53.266;10.410;2023-11-21T07:11:34;101338.38;;;5.66;100.00
10510;BME280;5303;53.266;10.410;2023-11-21T07:14:00;101339.28;;;5.67;100.00
10510;BME280;5303;53.266;10.410;2023-11-21T07:16:30;101336.59;;;5.64;100.00
10510;BME280;5303;53.266;10.410;2023-11-21T07:18:55;101345.31;;;5.64;100.00
10510;BME280;5303;53.266;10.410;2023-11-21T07:21:21;101338.38;;;5.66;100.00
10510;BME280;5303;53.266;10.410;2023-11-21T07:23:46;101341.84;;;5.65;100.00
10510;BME280;5303;53.266;10.410;2023-11-21T07:26:11;101336.63;;;5.65;100.00
10510;BME280;5303;53.266;10.410;2023-11-21T07:28:37;101356.72;;;5.66;100.00
10510;BME280;5303;53.266;10.410;2023-11-21T07:31:03;101357.56;;;5.65;100.00
10510;BME280;5303;53.266;10.410;2023-11-21T07:33:28;101367.16;;;5.65;100.00
10510;BME280;5303;53.266;10.410;2023-11-21T07:35:54;101359.25;;;5.63;100.00
10510;BME280;5303;53.266;10.410;2023-11-21T07:38:19;101365.44;;;5.67;100.00
10510;BME280;5303;53.266;10.410;2023-11-21T07:40:44;101368.13;;;5.70;100.00
10510;BME280;5303;53.266;10.410;2023-11-21T07:43:09;101377.81;;;5.72;100.00
10510;BME280;5303;53.266;10.410;2023-11-21T07:45:35;101383.88;;;5.71;100.00
10510;BME280;5303;53.266;10.410;2023-11-21T07:48:01;101383.13;;;5.75;100.00
10510;BME280;5303;53.266;10.410;2023-11-21T07:50:28;101389.22;;;5.74;100.00
10510;BME280;5303;53.266;10.410;2023-11-21T07:52:54;101384.09;;;5.81;100.00
10510;BME280;5303;53.266;10.410;2023-11-21T07:55:19;101390.06;;;5.73;100.00
10510;BME280;5303;53.266;10.410;2023-11-21T07:57:45;101401.50;;;5.78;100.00
10510;BME280;5303;53.266;10.410;2023-11-21T08:00:10;101408.44;;;5.76;100.00
10510;BME280;5303;53.266;10.410;2023-11-21T08:02:37;101415.53;;;5.81;100.00
10510;BME280;5303;53.266;10.410;2023-11-21T08:05:03;101410.28;;;5.81;100.00
10510;BME280;5303;53.266;10.410;2023-11-21T08:07:29;101416.50;;;5.84;100.00
10510;BME280;5303;53.266;10.410;2023-11-21T08:09:54;101414.09;;;5.92;100.00
10510;BME280;5303;53.266;10.410;2023-11-21T08:12:20;101413.16;;;5.90;100.00
10510;BME280;5303;53.266;10.410;2023-11-21T08:14:45;101414.63;;;5.80;100.00
10510;BME280;5303;53.266;10.410;2023-11-21T08:17:11;101420.88;;;5.84;100.00
10510;BME280;5303;53.266;10.410;2023-11-21T08:19:36;101420.69;;;5.77;100.00
10510;BME280;5303;53.266;10.410;2023-11-21T08:22:03;101425.94;;;5.77;100.00
10510;BME280;5303;53.266;10.410;2023-11-21T08:24:28;101431.34;;;5.84;100.00
10510;BME280;5303;53.266;10.410;2023-11-21T08:26:53;101434.00;;;5.85;100.00
10510;BME280;5303;53.266;10.410;2023-11-21T08:29:19;101433.16;;;5.88;100.00
10510;BME280;5303;53.266;10.410;2023-11-21T08:31:45;101432.19;;;5.83;100.00
10510;BME280;5303;53.266;10.410;2023-11-21T08:34:13;101437.56;;;5.89;100.00
10510;BME280;5303;53.266;10.410;2023-11-21T08:36:43;101435.91;;;5.91;100.00
10510;BME280;5303;53.266;10.410;2023-11-21T08:39:08;101438.69;;;5.97;100.00
10510;BME280;5303;53.266;10.410;2023-11-21T08:41:35;101446.59;;;6.00;100.00
10510;BME280;5303;53.266;10.410;2023-11-21T08:44:02;101445.94;;;6.07;100.00
10510;BME280;5303;53.266;10.410;2023-11-21T08:46:27;101442.47;;;6.08;100.00
10510;BME280;5303;53.266;10.410;2023-11-21T08:48:53;101445.06;;;6.08;100.00
10510;BME280;5303;53.266;10.410;2023-11-21T08:51:18;101449.41;;;6.06;100.00
10510;BME280;5303;53.266;10.410;2023-11-21T08:53:43;101450.34;;;6.10;100.00
10510;BME280;5303;53.266;10.410;2023-11-21T08:56:13;101461.72;;;6.10;100.00
10510;BME280;5303;53.266;10.410;2023-11-21T08:58:39;101461.00;;;6.16;100.00
10510;BME280;5303;53.266;10.410;2023-11-21T09:01:05;101467.06;;;6.13;100.00
10510;BME280;5303;53.266;10.410;2023-11-21T09:03:32;101472.44;;;6.19;100.00
10510;BME280;5303;53.266;10.410;2023-11-21T09:05:59;101478.44;;;6.15;100.00
10510;BME280;5303;53.266;10.410;2023-11-21T09:08:24;101485.44;;;6.15;100.00
10510;BME280;5303;53.266;10.410;2023-11-21T09:10:50;101490.09;;;6.26;100.00
10510;BME280;5303;53.266;10.410;2023-11-21T09:13:15;101482.97;;;6.22;100.00
10510;BME280;5303;53.266;10.410;2023-11-21T09:15:42;101485.59;;;6.22;100.00
10510;BME280;5303;53.266;10.410;2023-11-21T09:18:08;101488.38;;;6.28;100.00
10510;BME280;5303;53.266;10.410;2023-11-21T09:20:35;101485.03;;;6.34;100.00
10510;BME280;5303;53.266;10.410;2023-11-21T09:23:00;101494.94;;;6.46;100.00
10510;BME280;5303;53.266;10.410;2023-11-21T09:25:26;101495.59;;;6.37;100.00
10510;BME280;5303;53.266;10.410;2023-11-21T09:27:51;101500.16;;;6.44;100.00
10510;BME280;5303;53.266;10.410;2023-11-21T09:30:16;101497.84;;;6.58;100.00
10510;BME280;5303;53.266;10.410;2023-11-21T09:32:42;101508.06;;;6.47;100.00
10510;BME280;5303;53.266;10.410;2023-11-21T09:35:10;101517.59;;;6.44;100.00
10510;BME280;5303;53.266;10.410;2023-11-21T09:37:36;101526.44;;;6.49;100.00
10510;BME280;5303;53.266;10.410;2023-11-21T09:40:03;101522.97;;;6.50;100.00
10510;BME280;5303;53.266;10.410;2023-11-21T09:42:34;101532.59;;;6.49;100.00
10510;BME280;5303;53.266;10.410;2023-11-21T09:47:30;101527.66;;;6.63;100.00
10510;BME280;5303;53.266;10.410;2023-11-21T09:49:59;101534.91;;;6.73;100.00
10510;BME280;5303;53.266;10.410;2023-11-21T09:52:27;101536.41;;;6.63;100.00
10510;BME280;5303;53.266;10.410;2023-11-21T09:54:53;101548.81;;;6.69;100.00
10510;BME280;5303;53.266;10.410;2023-11-21T09:57:23;101546.13;;;6.66;100.00
10510;BME280;5303;53.266;10.410;2023-11-21T09:59:51;101546.28;;;6.74;100.00
10510;BME280;5303;53.266;10.410;2023-11-21T10:02:17;101551.22;;;6.61;100.00
10510;BME280;5303;53.266;10.410;2023-11-21T10:04:44;101551.25;;;6.63;100.00
10510;BME280;5303;53.266;10.410;2023-11-21T10:07:11;101551.13;;;6.57;100.00
10510;BME280;5303;53.266;10.410;2023-11-21T10:09:37;101545.03;;;6.58;100.00
10510;BME280;5303;53.266;10.410;2023-11-21T10:12:05;101550.22;;;6.55;100.00
10510;BME280;5303;53.266;10.410;2023-11-21T10:14:34;101548.50;;;6.57;100.00
10510;BME280;5303;53.266;10.410;2023-11-21T10:17:01;101557.22;;;6.56;100.00
10510;BME280;5303;53.266;10.410;2023-11-21T10:19:27;101568.72;;;6.62;100.00
10510;BME280;5303;53.266;10.410;2023-11-21T10:21:54;101567.94;;;6.65;100.00
10510;BME280;5303;53.266;10.410;2023-11-21T10:24:19;101567.94;;;6.65;100.00
10510;BME280;5303;53.266;10.410;2023-11-21T10:26:45;101564.63;;;6.74;100.00
10510;BME280;5303;53.266;10.410;2023-11-21T10:29:14;101571.72;;;6.76;100.00
10510;BME280;5303;53.266;10.410;2023-11-21T10:31:42;101572.72;;;6.83;100.00
10510;BME280;5303;53.266;10.410;2023-11-21T10:34:25;101573.72;;;6.86;100.00
10510;BME280;5303;53.266;10.410;2023-11-21T10:36:52;101570.75;;;6.74;100.00
10510;BME280;5303;53.266;10.410;2023-11-21T10:39:19;101576.78;;;6.70;100.00
10510;BME280;5303;53.266;10.410;2023-11-21T10:41:48;101575.03;;;6.69;100.00
10510;BME280;5303;53.266;10.410;2023-11-21T10:44:14;101576.97;;;6.76;100.00
10510;BME280;5303;53.266;10.410;2023-11-21T10:46:45;101575.22;;;6.77;100.00
10510;BME280;5303;53.266;10.410;2023-11-21T10:49:15;101571.78;;;6.79;100.00
10510;BME280;5303;53.266;10.410;2023-11-21T10:51:43;101570.06;;;6.81;100.00
10510;BME280;5303;53.266;10.410;2023-11-21T10:54:09;101566.63;;;6.84;100.00
10510;BME280;5303;53.266;10.410;2023-11-21T10:56:34;101566.00;;;6.94;100.00
10510;BME280;5303;53.266;10.410;2023-11-21T10:59:09;101578.16;;;6.90;100.00
10510;BME280;5303;53.266;10.410;2023-11-21T11:01:42;101572.28;;;7.01;100.00
10510;BME280;5303;53.266;10.410;2023-11-21T11:04:09;101581.38;;;6.79;100.00
10510;BME280;5303;53.266;10.410;2023-11-21T11:06:41;101587.34;;;6.73;100.00
10510;BME280;5303;53.266;10.410;2023-11-21T11:09:08;101585.88;;;6.84;100.00
10510;BME280;5303;53.266;10.410;2023-11-21T11:11:35;101584.09;;;6.83;100.00
10510;BME280;5303;53.266;10.410;2023-11-21T11:14:04;101575.31;;;6.81;100.00
10510;BME280;5303;53.266;10.410;2023-11-21T11:16:29;101580.72;;;6.87;100.00
10510;BME280;5303;53.266;10.410;2023-11-21T11:18:54;101584.03;;;6.80;100.00
10510;BME280;5303;53.266;10.410;2023-11-21T11:27:23;101594.81;;;6.92;100.00
10510;BME280;5303;53.266;10.410;2023-11-21T11:33:25;101596.50;;;6.89;100.00
10510;BME280;5303;53.266;10.410;2023-11-21T11:38:22;101613.41;;;7.02;100.00
10510;BME280;5303;53.266;10.410;2023-11-21T11:40:52;101621.16;;;6.96;100.00
10510;BME280;5303;53.266;10.410;2023-11-21T11:43:25;101629.84;;;6.94;100.00
10510;BME280;5303;53.266;10.410;2023-11-21T11:45:55;101622.66;;;6.86;100.00
10510;BME280;5303;53.266;10.410;2023-11-21T11:48:22;101623.81;;;6.64;100.00
10510;BME280;5303;53.266;10.410;2023-11-21T11:51:19;101614.63;;;6.80;100.00
10510;BME280;5303;53.266;10.410;2023-11-21T11:53:49;101628.19;;;6.63;100.00
10510;BME280;5303;53.266;10.410;2023-11-21T11:56:33;101617.31;;;6.83;100.00
10510;BME280;5303;53.266;10.410;2023-11-21T11:59:04;101632.88;;;6.75;100.00
10510;BME280;5303;53.266;10.410;2023-11-21T12:01:32;101636.25;;;6.71;100.00
10510;BME280;5303;53.266;10.410;2023-11-21T12:06:46;101635.22;;;6.64;100.00
10510;BME280;5303;53.266;10.410;2023-11-21T12:09:18;101637.94;;;6.69;100.00
10510;BME280;5303;53.266;10.410;2023-11-21T12:11:46;101641.19;;;6.59;100.00
10510;BME280;5303;53.266;10.410;2023-11-21T12:14:12;101636.19;;;6.68;100.00
10510;BME280;5303;53.266;10.410;2023-11-21T12:16:38;101639.38;;;6.56;100.00
10510;BME280;5303;53.266;10.410;2023-11-21T12:19:04;101646.34;;;6.56;100.00
10510;BME280;5303;53.266;10.410;2023-11-21T12:21:29;101655.84;;;6.52;100.00
10510;BME280;5303;53.266;10.410;2023-11-21T12:23:55;101660.25;;;6.53;100.00
10510;BME280;5303;53.266;10.410;2023-11-21T12:26:23;101663.84;;;6.57;100.00
10510;BME280;5303;53.266;10.410;2023-11-21T12:28:52;101662.81;;;6.52;100.00
10510;BME280;5303;53.266;10.410;2023-11-21T12:31:21;101662.97;;;6.56;100.00
10510;BME280;5303;53.266;10.410;2023-11-21T12:33:46;101668.84;;;6.48;100.00
10510;BME280;5303;53.266;10.410;2023-11-21T12:36:12;101669.72;;;6.48;100.00
10510;BME280;5303;53.266;10.410;2023-11-21T12:38:40;101672.38;;;6.50;100.00
10510;BME280;5303;53.266;10.410;2023-11-21T12:41:07;101677.63;;;6.50;100.00
10510;BME280;5303;53.266;10.410;2023-11-21T12:43:33;101675.94;;;6.52;100.00
10510;BME280;5303;53.266;10.410;2023-11-21T12:46:07;101686.25;;;6.46;100.00
10510;BME280;5303;53.266;10.410;2023-11-21T12:48:32;101689.06;;;6.53;100.00
10510;BME280;5303;53.266;10.410;2023-11-21T12:50:58;101687.69;;;6.66;100.00
10510;BME280;5303;53.266;10.410;2023-11-21T12:53:25;101688.16;;;6.51;100.00
10510;BME280;5303;53.266;10.410;2023-11-21T12:55:51;101687.16;;;6.46;100.00
10510;BME280;5303;53.266;10.410;2023-11-21T12:58:17;101692.69;;;6.57;100.00
10510;BME280;5303;53.266;10.410;2023-11-21T13:00:46;101699.47;;;6.50;100.00
10510;BME280;5303;53.266;10.410;2023-11-21T13:03:13;101704.75;;;6.52;100.00